Time;durP1;ratioP1;P1;durP2;ratioP2;P2;SDS_P1;SDS_P2;PMS_P1;PMS_P2;Temp;Humidity;BMP_temperature;BMP_pressure;BME280_temperature;BME280_humidity;BME280_pressure;Samples;Min_cycle;Max_cycle;Signal;HPM_P1;HPM_P2
2023/02/01 00:01:31;;;;;;;5.80;5.00;;;4.60;91.70;;;;;;4810887;29;20548;-76
2023/02/01 00:04:12;;;;;;;6.63;5.63;;;4.70;91.60;;;;;;4823510;29;20398;-75
2023/02/01 00:06:54;;;;;;;7.70;5.90;;;4.70;91.30;;;;;;4847049;29;20519;-74
2023/02/01 00:09:24;;;;;;;6.70;5.28;;;4.80;91.50;;;;;;4849265;29;20152;-73
2023/02/01 00:11:59;;;;;;;7.38;5.22;;;4.80;91.50;;;;;;4813199;29;20045;-79
2023/02/01 00:14:38;;;;;;;7.60;5.20;;;4.60;90.80;;;;;;4840486;29;20576;-76
2023/02/01 00:17:17;;;;;;;5.63;4.53;;;4.50;90.90;;;;;;4830311;29;20046;-80
2023/02/01 00:19:48;;;;;;;8.93;4.85;;;4.40;90.80;;;;;;4810707;29;20202;-75
2023/02/01 00:22:19;;;;;;;4.72;4.03;;;4.30;90.70;;;;;;4822505;29;20141;-76
2023/02/01 00:24:49;;;;;;;7.07;4.90;;;4.30;90.70;;;;;;4836010;29;20081;-79
2023/02/01 00:27:20;;;;;;;6.68;4.38;;;4.40;91.00;;;;;;4840499;29;20136;-78
2023/02/01 00:29:48;;;;;;;5.10;4.43;;;4.40;90.90;;;;;;4841748;29;20380;-74
2023/02/01 00:32:16;;;;;;;6.93;5.50;;;4.30;90.70;;;;;;4840792;29;20411;-72
2023/02/01 00:34:44;;;;;;;4.75;4.28;;;4.40;91.00;;;;;;4820157;29;20439;-74
2023/02/01 00:37:14;;;;;;;;;;;4.40;90.40;;;;;;4813173;29;20045;-80
2023/02/01 00:39:43;;;;;;;11.52;4.57;;;4.40;90.50;;;;;;4825575;29;20409;-75
2023/02/01 00:42:12;;;;;;;;;;;4.50;90.20;;;;;;4812773;29;20448;-79
2023/02/01 00:44:40;;;;;;;4.57;4.18;;;4.40;90.30;;;;;;4813888;29;19924;-80
2023/02/01 00:47:10;;;;;;;6.40;4.63;;;4.40;90.40;;;;;;4837528;29;20054;-77
2023/02/01 00:49:37;;;;;;;4.72;4.25;;;4.40;90.60;;;;;;4840789;29;20220;-75
2023/02/01 00:52:14;;;;;;;5.25;4.30;;;4.30;90.50;;;;;;4824551;29;20057;-78
2023/02/01 00:54:47;;;;;;;5.65;4.70;;;4.30;90.50;;;;;;4824737;29;20529;-73
2023/02/01 00:57:14;;;;;;;5.78;4.47;;;4.30;90.50;;;;;;4824199;29;20129;-76
2023/02/01 00:59:45;;;;;;;6.93;4.65;;;4.30;90.40;;;;;;4827286;29;20058;-76
2023/02/01 01:02:15;;;;;;;6.82;4.78;;;4.30;90.70;;;;;;4824295;29;20064;-74
2023/02/01 01:04:47;;;;;;;5.28;4.70;;;4.30;90.60;;;;;;4839303;29;20042;-73
2023/02/01 01:07:21;;;;;;;5.53;4.30;;;4.30;90.50;;;;;;4804338;29;20054;-76
2023/02/01 01:09:48;;;;;;;5.43;4.57;;;4.30;90.70;;;;;;4827976;29;20050;-79
2023/02/01 01:12:15;;;;;;;5.47;4.68;;;4.20;90.80;;;;;;4846565;29;20049;-75
2023/02/01 01:14:44;;;;;;;5.57;4.63;;;4.20;90.90;;;;;;4845369;29;20034;-75
2023/02/01 01:17:11;;;;;;;5.00;4.18;;;4.20;90.90;;;;;;4827628;29;20053;-76
2023/02/01 01:19:47;;;;;;;4.60;4.20;;;4.30;91.00;;;;;;4827587;29;20082;-75
2023/02/01 01:22:24;;;;;;;5.30;4.50;;;4.30;90.50;;;;;;4842521;29;20398;-73
2023/02/01 01:24:57;;;;;;;5.55;4.60;;;4.40;90.20;;;;;;4843422;29;20057;-76
2023/02/01 01:27:27;;;;;;;6.10;4.60;;;4.40;90.00;;;;;;4826474;29;20120;-74
2023/02/01 01:29:56;;;;;;;4.40;4.00;;;4.40;89.70;;;;;;4829387;29;20057;-77
2023/02/01 01:32:41;;;;;;;4.60;4.20;;;4.50;89.20;;;;;;4846534;29;20045;-74
2023/02/01 01:35:14;;;;;;;4.35;3.95;;;4.50;89.20;;;;;;4798516;29;20038;-74
2023/02/01 01:37:42;;;;;;;6.22;4.30;;;4.40;88.60;;;;;;4823275;29;20079;-77
2023/02/01 01:40:10;;;;;;;4.78;4.28;;;4.40;89.50;;;;;;4843651;29;20041;-77
2023/02/01 01:42:41;;;;;;;4.40;4.00;;;4.40;88.70;;;;;;4832745;29;20050;-76
2023/02/01 01:45:28;;;;;;;4.40;4.00;;;4.60;87.10;;;;;;4845473;29;20509;-78
2023/02/01 01:48:15;;;;;;;6.28;4.40;;;4.50;87.20;;;;;;4813136;29;20058;-77
2023/02/01 01:51:05;;;;;;;5.75;4.50;;;4.60;86.70;;;;;;4816720;29;20141;-77
2023/02/01 01:53:45;;;;;;;5.03;4.45;;;4.70;86.50;;;;;;4829280;29;20050;-76
2023/02/01 01:56:12;;;;;;;5.78;4.30;;;4.70;87.10;;;;;;4844581;29;20050;-78
2023/02/01 01:58:41;;;;;;;4.80;4.30;;;4.60;87.10;;;;;;4824265;29;20060;-77
2023/02/01 02:01:08;;;;;;;6.43;4.40;;;4.60;86.70;;;;;;4811529;29;20054;-79
2023/02/01 02:03:47;;;;;;;7.47;4.72;;;4.60;86.70;;;;;;4820127;29;20157;-80
2023/02/01 02:06:41;;;;;;;5.00;4.10;;;4.60;86.50;;;;;;4839180;29;20046;-74
2023/02/01 02:09:11;;;;;;;4.93;4.10;;;4.70;86.40;;;;;;4821856;29;20057;-77
2023/02/01 02:11:38;;;;;;;4.57;4.00;;;4.80;86.60;;;;;;4824110;29;20077;-77
2023/02/01 02:14:08;;;;;;;5.97;4.38;;;4.80;86.30;;;;;;4824598;29;20061;-78
2023/02/01 02:16:42;;;;;;;;;;;4.70;86.60;;;;;;4819659;29;20042;-79
2023/02/01 02:19:56;;;;;;;4.80;4.30;;;4.60;86.80;;;;;;4828615;29;19924;-78
2023/02/01 02:22:52;;;;;;;4.75;4.32;;;4.70;87.00;;;;;;4814822;29;20056;-80
2023/02/01 02:25:42;;;;;;;4.53;4.13;;;4.70;86.70;;;;;;4837653;29;20046;-79
2023/02/01 02:28:43;;;;;;;5.88;4.38;;;4.70;86.40;;;;;;4825336;29;20082;-81
2023/02/01 02:31:39;;;;;;;4.60;4.10;;;4.60;87.40;;;;;;4824514;29;20043;-76
2023/02/01 02:34:43;;;;;;;4.47;4.05;;;4.60;87.40;;;;;;4802935;29;20059;-80
2023/02/01 02:37:54;;;;;;;5.18;4.43;;;4.50;87.70;;;;;;4831578;29;20051;-74
2023/02/01 02:40:45;;;;;;;4.45;4.05;;;4.50;86.70;;;;;;4802572;29;20082;-77
2023/02/01 02:49:04;;;;;;;4.78;4.00;;;4.60;87.80;;;;;;4824859;29;21253;-79
2023/02/01 02:54:50;;;;;;;4.85;4.10;;;4.70;88.50;;;;;;4838415;29;20074;-75
2023/02/01 03:06:38;;;;;;;4.90;4.40;;;4.60;89.80;;;;;;4838553;29;20085;-80
2023/02/01 03:09:11;;;;;;;5.60;4.47;;;4.60;90.00;;;;;;4822876;29;20462;-78
2023/02/01 03:14:37;;;;;;;5.10;4.60;;;4.50;90.00;;;;;;4815711;29;20058;-75
2023/02/01 03:17:13;;;;;;;5.18;4.65;;;4.60;90.10;;;;;;4841570;29;20057;-76
2023/02/01 03:19:49;;;;;;;6.60;4.60;;;4.70;90.10;;;;;;4825855;29;20061;-79
2023/02/01 03:22:21;;;;;;;4.80;4.30;;;4.80;90.00;;;;;;4822751;29;20080;-80
2023/02/01 03:25:03;;;;;;;5.18;4.65;;;4.80;90.00;;;;;;4825300;29;20047;-77
2023/02/01 03:27:52;;;;;;;4.80;4.30;;;4.80;89.90;;;;;;4829836;29;20470;-76
2023/02/01 03:30:43;;;;;;;4.72;4.28;;;4.80;89.70;;;;;;4824542;29;20045;-75
2023/02/01 03:33:22;;;;;;;5.72;4.40;;;4.80;90.00;;;;;;4822255;29;20408;-75
2023/02/01 03:36:24;;;;;;;5.47;4.30;;;4.80;90.10;;;;;;4823581;29;20518;-76
2023/02/01 03:39:25;;;;;;;4.80;4.30;;;4.80;90.20;;;;;;4821020;29;20461;-80
2023/02/01 03:41:56;;;;;;;;;;;4.80;90.00;;;;;;4805679;29;20050;-74
2023/02/01 03:44:36;;;;;;;5.47;4.05;;;4.70;90.20;;;;;;4837170;29;20406;-80
2023/02/01 03:47:18;;;;;;;4.80;4.30;;;4.70;90.20;;;;;;4806970;29;20080;-75
2023/02/01 03:49:55;;;;;;;4.50;4.10;;;4.80;90.20;;;;;;4822737;29;20054;-79
2023/02/01 03:52:34;;;;;;;4.85;4.00;;;4.70;89.40;;;;;;4821483;29;20379;-78
2023/02/01 03:55:06;;;;;;;4.90;4.40;;;4.70;89.00;;;;;;4814056;29;20046;-76
2023/02/01 03:57:44;;;;;;;6.00;4.20;;;4.70;89.50;;;;;;4832314;29;20415;-76
2023/02/01 04:00:24;;;;;;;4.80;4.30;;;4.60;89.60;;;;;;4843415;24;20053;-73
2023/02/01 04:02:55;;;;;;;5.35;4.40;;;4.60;89.80;;;;;;4820275;29;20150;-74
2023/02/01 04:05:23;;;;;;;5.07;4.18;;;4.60;90.00;;;;;;4814941;29;20053;-74
2023/02/01 04:07:54;;;;;;;5.28;4.45;;;4.50;90.00;;;;;;4841499;29;20391;-80
2023/02/01 04:13:17;;;;;;;4.80;4.30;;;4.60;88.30;;;;;;4837156;29;20106;-79
2023/02/01 04:16:20;;;;;;;4.70;4.20;;;4.70;89.00;;;;;;4848598;29;20073;-74
2023/02/01 04:18:55;;;;;;;4.85;4.32;;;4.70;86.60;;;;;;4813197;29;20074;-77
2023/02/01 04:21:33;;;;;;;5.35;4.45;;;4.70;87.70;;;;;;4844780;24;20050;-76
2023/02/01 04:24:06;;;;;;;6.18;5.13;;;4.50;90.20;;;;;;4821238;29;20470;-75
2023/02/01 04:26:37;;;;;;;6.15;4.60;;;4.10;91.20;;;;;;4825058;29;20393;-78
2023/02/01 04:29:09;;;;;;;5.25;4.50;;;4.10;90.70;;;;;;4822044;29;20041;-78
2023/02/01 04:31:36;;;;;;;8.38;5.40;;;4.50;89.80;;;;;;4842109;29;20038;-76
2023/02/01 04:34:04;;;;;;;6.13;5.07;;;4.30;91.10;;;;;;4847707;29;20060;-80
2023/02/01 04:36:31;;;;;;;9.30;5.63;;;4.00;92.00;;;;;;4807399;29;20053;-78
2023/02/01 04:38:59;;;;;;;7.57;5.55;;;3.80;92.60;;;;;;4815862;29;20114;-78
2023/02/01 04:41:26;;;;;;;7.10;5.35;;;3.70;93.30;;;;;;4809103;29;20046;-77
2023/02/01 04:44:05;;;;;;;7.55;5.40;;;3.60;94.20;;;;;;4834901;29;20106;-75
2023/02/01 04:46:46;;;;;;;7.18;5.57;;;3.50;94.50;;;;;;4839188;29;20054;-74
2023/02/01 04:49:15;;;;;;;7.78;5.45;;;3.50;95.00;;;;;;4853182;29;20417;-78
2023/02/01 04:51:43;;;;;;;6.55;5.22;;;3.50;95.20;;;;;;4855893;29;20034;-76
2023/02/01 04:54:11;;;;;;;10.77;6.28;;;3.40;95.70;;;;;;4851006;29;20053;-74
2023/02/01 04:56:41;;;;;;;10.40;6.50;;;3.20;96.40;;;;;;4809604;29;20065;-79
2023/02/01 04:59:11;;;;;;;7.80;6.22;;;3.10;97.00;;;;;;4837007;29;20483;-77
2023/02/01 05:01:38;;;;;;;10.10;6.65;;;3.10;97.30;;;;;;4853389;29;20406;-77
2023/02/01 05:04:19;;;;;;;8.95;6.43;;;3.10;97.40;;;;;;4840081;29;20038;-75
2023/02/01 05:06:46;;;;;;;10.10;6.40;;;3.10;98.00;;;;;;4809114;29;20054;-75
2023/02/01 05:09:14;;;;;;;10.50;6.78;;;3.20;98.40;;;;;;4836255;29;20056;-80
2023/02/01 05:14:26;;;;;;;7.95;6.20;;;3.20;98.60;;;;;;4842753;29;20045;-78
2023/02/01 05:16:54;;;;;;;9.80;6.90;;;2.90;99.40;;;;;;4826371;29;20071;-75
2023/02/01 05:19:27;;;;;;;8.68;6.97;;;2.90;99.50;;;;;;4835920;29;20051;-77
2023/02/01 05:21:54;;;;;;;10.02;6.90;;;2.80;99.90;;;;;;4815300;29;20050;-75
2023/02/01 05:24:21;;;;;;;10.95;6.53;;;2.80;99.90;;;;;;4813182;29;20114;-76
2023/02/01 05:26:49;;;;;;;11.45;6.32;;;2.90;99.90;;;;;;4816490;29;20054;-77
2023/02/01 05:29:17;;;;;;;8.60;6.18;;;2.80;99.90;;;;;;4814766;29;20487;-77
2023/02/01 05:31:46;;;;;;;6.90;6.13;;;2.80;99.90;;;;;;4822994;29;20042;-77
2023/02/01 05:34:15;;;;;;;8.70;6.47;;;2.90;99.90;;;;;;4789643;29;20141;-79
2023/02/01 05:36:43;;;;;;;8.30;6.28;;;3.20;99.90;;;;;;4821776;29;20095;-74
2023/02/01 05:39:12;;;;;;;12.37;6.60;;;3.30;99.90;;;;;;4816613;29;20135;-74
2023/02/01 05:41:47;;;;;;;9.15;5.90;;;3.40;99.60;;;;;;4814377;29;20394;-72
2023/02/01 05:44:17;;;;;;;8.23;5.50;;;3.30;99.20;;;;;;4792216;29;20066;-77
2023/02/01 05:46:46;;;;;;;12.35;6.22;;;3.40;99.20;;;;;;4828794;29;20098;-75
2023/02/01 05:49:19;;;;;;;10.13;5.85;;;3.60;99.00;;;;;;4827484;24;20416;-80
2023/02/01 05:51:46;;;;;;;10.73;6.05;;;3.60;99.20;;;;;;4858270;29;20045;-80
2023/02/01 05:54:13;;;;;;;9.18;6.18;;;3.60;99.60;;;;;;4863474;29;20048;-80
2023/02/01 05:56:40;;;;;;;8.02;6.20;;;3.60;98.90;;;;;;4851523;29;20385;-82
2023/02/01 05:59:13;;;;;;;58.53;29.67;;;3.60;99.40;;;;;;4841951;29;20041;-78
2023/02/01 06:01:41;;;;;;;51.20;28.83;;;3.60;99.80;;;;;;4829223;29;20046;-75
2023/02/01 06:04:09;;;;;;;22.42;15.07;;;3.60;99.90;;;;;;4844581;29;20391;-83
2023/02/01 06:06:39;;;;;;;30.10;17.58;;;3.60;99.90;;;;;;4858260;29;20045;-73
2023/02/01 06:09:18;;;;;;;15.18;10.70;;;3.70;99.90;;;;;;4844710;29;20060;-77
2023/02/01 06:12:27;;;;;;;22.35;13.88;;;3.60;99.90;;;;;;4831724;24;20058;-75
2023/02/01 06:14:55;;;;;;;42.65;20.33;;;3.40;99.90;;;;;;4792159;29;20063;-79
2023/02/01 06:17:25;;;;;;;43.83;22.38;;;3.40;99.90;;;;;;4808112;29;20070;-77
2023/02/01 06:19:56;;;;;;;11.77;9.18;;;3.60;99.90;;;;;;4805411;29;20163;-78
2023/02/01 06:22:25;;;;;;;8.80;6.72;;;3.70;99.30;;;;;;4805144;29;20042;-77
2023/02/01 06:24:55;;;;;;;12.65;7.03;;;3.80;98.80;;;;;;4790288;29;20063;-80
2023/02/01 06:27:23;;;;;;;9.82;6.47;;;3.80;99.10;;;;;;4788462;29;20666;-71
2023/02/01 06:29:51;;;;;;;11.10;7.05;;;3.80;99.60;;;;;;4789627;29;20063;-72
2023/02/01 06:32:22;;;;;;;10.05;7.18;;;3.70;99.90;;;;;;4787767;29;20434;-74
2023/02/01 06:34:52;;;;;;;11.13;7.30;;;3.70;99.90;;;;;;4791426;29;20492;-72
2023/02/01 06:37:20;;;;;;;11.40;7.60;;;3.70;99.90;;;;;;4788255;29;20050;-73
2023/02/01 06:39:49;;;;;;;14.48;7.22;;;3.60;99.90;;;;;;4808334;29;20047;-85
2023/02/01 06:42:17;;;;;;;11.88;7.07;;;3.60;99.90;;;;;;4810790;29;20050;-83
2023/02/01 06:44:44;;;;;;;9.40;7.35;;;3.70;99.90;;;;;;4809811;29;20103;-82
2023/02/01 06:47:11;;;;;;;19.10;10.52;;;3.70;99.90;;;;;;4809626;29;20057;-83
2023/02/01 06:49:40;;;;;;;18.10;10.50;;;3.60;99.90;;;;;;4808411;29;20074;-78
2023/02/01 06:52:10;;;;;;;40.78;18.63;;;3.70;99.90;;;;;;4779281;29;20047;-79
2023/02/01 06:54:37;;;;;;;16.67;11.00;;;3.60;99.90;;;;;;4787329;30;20051;-79
2023/02/01 06:57:07;;;;;;;18.40;9.20;;;3.60;99.90;;;;;;4786839;29;20420;-74
2023/02/01 06:59:35;;;;;;;14.50;8.48;;;3.50;99.90;;;;;;4799286;29;20051;-76
2023/02/01 07:02:05;;;;;;;17.20;9.63;;;3.40;99.90;;;;;;4756858;30;20090;-79
2023/02/01 07:04:33;;;;;;;16.50;9.57;;;3.50;99.90;;;;;;4785358;29;20070;-75
2023/02/01 07:07:04;;;;;;;16.38;9.82;;;3.60;99.90;;;;;;4799778;29;20055;-78
2023/02/01 07:09:48;;;;;;;22.77;10.93;;;3.70;99.90;;;;;;4798560;29;20051;-76
2023/02/01 07:12:24;;;;;;;21.75;11.90;;;3.90;99.90;;;;;;4791882;29;20438;-77
2023/02/01 07:14:57;;;;;;;20.50;11.77;;;4.00;99.90;;;;;;4806916;29;20050;-77
2023/02/01 07:17:24;;;;;;;23.75;12.68;;;4.10;99.90;;;;;;4805520;29;20058;-77
2023/02/01 07:19:59;;;;;;;19.13;12.52;;;4.10;99.90;;;;;;4805866;29;20578;-75
2023/02/01 07:22:27;;;;;;;22.25;13.15;;;4.10;99.90;;;;;;4804332;29;20122;-77
2023/02/01 07:24:57;;;;;;;19.80;13.00;;;4.30;99.90;;;;;;4804607;29;20047;-76
2023/02/01 07:27:25;;;;;;;17.40;12.20;;;4.30;99.90;;;;;;4802071;29;20055;-77
2023/02/01 07:29:55;;;;;;;20.73;11.98;;;4.40;99.90;;;;;;4794760;29;20054;-78
2023/02/01 07:32:22;;;;;;;16.73;10.25;;;4.40;99.90;;;;;;4810078;29;20058;-79
2023/02/01 07:34:49;;;;;;;18.42;9.70;;;4.20;99.90;;;;;;4805503;29;20459;-78
2023/02/01 07:37:20;;;;;;;16.52;10.25;;;3.80;99.90;;;;;;4805255;29;20043;-78
2023/02/01 07:39:54;;;;;;;12.13;8.45;;;3.90;99.90;;;;;;4805213;29;20051;-74
2023/02/01 07:42:23;;;;;;;15.30;8.60;;;3.90;98.20;;;;;;4787094;29;20456;-78
2023/02/01 07:44:51;;;;;;;14.23;10.18;;;3.80;98.50;;;;;;4805288;29;20448;-77
2023/02/01 07:47:21;;;;;;;13.73;8.77;;;3.80;98.90;;;;;;4803347;29;20074;-74
2023/02/01 07:49:51;;;;;;;12.38;8.75;;;4.00;98.40;;;;;;4820058;29;20385;-77
2023/02/01 07:52:18;;;;;;;10.70;8.23;;;4.30;97.50;;;;;;4793986;29;20054;-77
2023/02/01 07:54:46;;;;;;;14.98;8.10;;;4.40;96.70;;;;;;4803516;29;20062;-74
2023/02/01 07:57:13;;;;;;;10.48;7.43;;;4.50;96.30;;;;;;4806801;29;20055;-76
2023/02/01 08:01:19;;;;;;;12.63;7.72;;;4.60;96.00;;;;;;4803006;29;20100;-77
2023/02/01 08:02:28;;;;;;;11.23;6.88;;;4.60;96.00;;;;;;4819738;29;20055;-73
2023/02/01 08:04:55;;;;;;;14.02;7.32;;;4.90;95.90;;;;;;4806287;29;20059;-78
2023/02/01 08:07:23;;;;;;;11.43;7.45;;;4.90;95.60;;;;;;4814242;29;20051;-75
2023/02/01 08:09:50;;;;;;;11.75;8.18;;;5.00;95.50;;;;;;4804953;29;20046;-77
2023/02/01 08:12:20;;;;;;;13.27;8.63;;;4.90;95.90;;;;;;4815516;29;20066;-77
2023/02/01 08:14:48;;;;;;;21.52;11.98;;;5.10;96.20;;;;;;4810112;29;20171;-78
2023/02/01 08:17:15;;;;;;;27.63;13.85;;;5.20;96.70;;;;;;4821613;29;20054;-78
2023/02/01 08:19:45;;;;;;;26.67;16.27;;;5.30;97.00;;;;;;4822713;29;20403;-75
2023/02/01 08:22:15;;;;;;;27.23;17.75;;;5.30;97.60;;;;;;4821521;29;20070;-72
2023/02/01 08:24:48;;;;;;;37.03;21.23;;;5.40;97.60;;;;;;4808375;29;20082;-75
2023/02/01 08:27:15;;;;;;;37.17;22.80;;;5.40;97.60;;;;;;4801208;29;20042;-76
2023/02/01 08:29:43;;;;;;;35.13;20.75;;;5.50;97.90;;;;;;4807070;29;20407;-76
2023/02/01 08:32:16;;;;;;;31.15;18.75;;;5.50;97.10;;;;;;4818440;29;20046;-77
2023/02/01 08:34:50;;;;;;;34.83;15.93;;;5.30;97.20;;;;;;4794871;29;20043;-75
2023/02/01 08:37:18;;;;;;;27.58;14.10;;;5.30;96.80;;;;;;4821504;29;20054;-75
2023/02/01 08:39:50;;;;;;;25.08;12.98;;;5.40;96.60;;;;;;4803664;29;20110;-72
2023/02/01 08:45:15;;;;;;;18.27;11.02;;;5.50;96.10;;;;;;4822794;29;20184;-75
2023/02/01 08:47:44;;;;;;;21.87;11.60;;;5.70;95.30;;;;;;4797969;29;20484;-73
2023/02/01 08:50:13;;;;;;;14.35;10.65;;;5.70;95.20;;;;;;4790908;29;20307;-75
2023/02/01 08:52:41;;;;;;;18.67;10.43;;;6.00;95.00;;;;;;4805529;29;20057;-75
2023/02/01 08:55:11;;;;;;;16.63;10.40;;;6.00;94.50;;;;;;4805177;29;20046;-73
2023/02/01 08:57:41;;;;;;;21.75;10.20;;;6.10;94.90;;;;;;4817375;24;20391;-77
2023/02/01 09:00:25;;;;;;;19.40;11.68;;;6.20;94.30;;;;;;4822181;29;20538;-74
2023/02/01 09:03:05;;;;;;;19.65;10.15;;;6.40;94.60;;;;;;4808775;29;20055;-75
2023/02/01 09:05:32;;;;;;;14.55;8.88;;;6.40;94.00;;;;;;4825331;29;20144;-77
2023/02/01 09:08:18;;;;;;;14.52;9.57;;;6.30;94.30;;;;;;4811714;29;20383;-76
2023/02/01 09:10:45;;;;;;;12.73;8.95;;;6.30;93.70;;;;;;4822043;29;20057;-77
2023/02/01 09:13:20;;;;;;;12.70;8.30;;;6.30;93.90;;;;;;4826416;29;20133;-78
2023/02/01 09:15:51;;;;;;;12.90;8.05;;;6.40;93.50;;;;;;4828203;29;20468;-78
2023/02/01 09:18:18;;;;;;;20.58;9.38;;;6.50;92.80;;;;;;4821244;29;20066;-77
2023/02/01 09:20:46;;;;;;;26.60;9.10;;;6.50;92.00;;;;;;4843603;29;20113;-75
2023/02/01 09:23:14;;;;;;;15.40;9.05;;;6.60;92.10;;;;;;4828726;29;20046;-78
2023/02/01 09:25:44;;;;;;;15.23;8.38;;;6.70;92.50;;;;;;4830810;29;20070;-75
2023/02/01 09:28:11;;;;;;;19.03;9.20;;;6.90;92.20;;;;;;4810515;29;20052;-78
2023/02/01 09:30:41;;;;;;;18.50;9.30;;;7.00;91.90;;;;;;4845896;29;20194;-77
2023/02/01 09:33:09;;;;;;;17.23;10.32;;;7.00;91.40;;;;;;4822636;29;20054;-77
2023/02/01 09:35:37;;;;;;;14.68;10.77;;;7.10;91.20;;;;;;4824511;29;20130;-78
2023/02/01 09:38:05;;;;;;;20.33;10.73;;;6.90;90.80;;;;;;4827660;29;20399;-77
2023/02/01 09:40:35;;;;;;;18.13;11.23;;;7.00;91.10;;;;;;4817426;29;20074;-77
2023/02/01 09:43:38;;;;;;;18.52;9.90;;;7.20;90.80;;;;;;4842515;29;20290;-79
2023/02/01 09:46:25;;;;;;;22.08;10.80;;;7.40;90.50;;;;;;4821473;29;20570;-78
2023/02/01 09:48:58;;;;;;;18.67;10.10;;;7.30;88.30;;;;;;4840596;29;20046;-78
2023/02/01 09:51:48;;;;;;;15.40;9.07;;;7.30;89.00;;;;;;4811018;29;20145;-76
2023/02/01 09:54:49;;;;;;;15.50;8.60;;;7.20;88.50;;;;;;4809551;29;20357;-77
2023/02/01 09:57:24;;;;;;;15.30;8.70;;;7.20;90.30;;;;;;4821714;29;20053;-73
2023/02/01 10:00:05;;;;;;;16.40;9.32;;;8.10;93.10;;;;;;4791181;29;20062;-74
2023/02/01 10:02:38;;;;;;;14.57;8.88;;;8.70;91.50;;;;;;4803981;29;20051;-74
2023/02/01 10:05:12;;;;;;;14.35;8.70;;;9.00;93.70;;;;;;4806458;29;20427;-71
2023/02/01 10:08:09;;;;;;;26.25;9.05;;;9.40;89.70;;;;;;4806276;29;20117;-75
2023/02/01 10:10:50;;;;;;;18.55;9.02;;;9.70;90.30;;;;;;4806150;29;20059;-76
2023/02/01 10:13:49;;;;;;;19.10;9.82;;;9.90;87.90;;;;;;4807654;29;20111;-76
2023/02/01 10:16:39;;;;;;;12.18;7.95;;;10.40;86.80;;;;;;4801771;29;20083;-75
2023/02/01 10:19:25;;;;;;;19.42;9.18;;;10.60;83.60;;;;;;4805233;29;20059;-74
2023/02/01 10:22:02;;;;;;;16.63;8.63;;;10.70;81.30;;;;;;4805071;29;20061;-73
2023/02/01 10:24:32;;;;;;;19.05;8.38;;;10.40;76.60;;;;;;4807012;29;20054;-73
2023/02/01 10:27:09;;;;;;;12.05;7.95;;;9.80;75.40;;;;;;4826768;24;20065;-76
2023/02/01 10:29:47;;;;;;;14.98;8.25;;;9.60;75.60;;;;;;4824298;29;20057;-75
2023/02/01 10:32:21;;;;;;;18.92;8.95;;;9.60;75.80;;;;;;4814011;29;20092;-76
2023/02/01 10:35:00;;;;;;;15.70;8.40;;;9.90;76.70;;;;;;4807611;29;20054;-75
2023/02/01 10:37:33;;;;;;;21.10;8.93;;;10.00;76.30;;;;;;4823498;29;20055;-76
2023/02/01 10:40:17;;;;;;;18.08;8.07;;;10.30;75.00;;;;;;4806499;29;20137;-75
2023/02/01 10:42:46;;;;;;;16.25;8.63;;;10.60;74.20;;;;;;4809116;29;20050;-76
2023/02/01 10:45:20;;;;;;;17.42;8.60;;;10.80;74.20;;;;;;4819361;24;20059;-76
2023/02/01 10:47:53;;;;;;;19.40;9.50;;;10.90;72.20;;;;;;4825940;29;20047;-73
2023/02/01 10:50:40;;;;;;;;;;;10.60;71.30;;;;;;4827530;29;20093;-75
2023/02/01 10:53:38;;;;;;;19.77;10.52;;;10.50;72.10;;;;;;4810625;29;19921;-78
2023/02/01 10:56:12;;;;;;;22.38;11.32;;;10.60;71.60;;;;;;4823557;29;20383;-77
2023/02/01 10:58:48;;;;;;;20.10;11.60;;;10.80;71.80;;;;;;4824250;29;20065;-75
2023/02/01 11:01:40;;;;;;;21.13;11.30;;;11.30;71.60;;;;;;4825929;29;20053;-75
2023/02/01 11:04:19;;;;;;;26.55;11.02;;;11.60;70.70;;;;;;4821042;29;20429;-77
2023/02/01 11:07:07;;;;;;;22.13;9.98;;;11.70;70.20;;;;;;4822098;29;20053;-76
2023/02/01 11:09:41;;;;;;;23.40;10.63;;;11.50;71.40;;;;;;4837855;29;20042;-76
2023/02/01 11:12:34;;;;;;;21.58;11.15;;;11.40;71.60;;;;;;4819582;29;20050;-78
2023/02/01 11:15:21;;;;;;;17.20;9.48;;;11.90;71.80;;;;;;4829536;29;20057;-75
2023/02/01 11:17:56;;;;;;;18.55;8.30;;;12.20;70.10;;;;;;4816566;29;20054;-74
2023/02/01 11:20:49;;;;;;;16.35;7.35;;;12.20;68.60;;;;;;4823266;29;20098;-75
2023/02/01 11:23:26;;;;;;;16.58;7.95;;;12.00;71.20;;;;;;4813400;29;20046;-77
2023/02/01 11:26:02;;;;;;;11.25;6.57;;;12.20;69.20;;;;;;4833915;29;20045;-76
2023/02/01 11:28:35;;;;;;;12.60;6.97;;;12.30;67.80;;;;;;4824880;29;20053;-75
2023/02/01 11:31:07;;;;;;;10.63;6.15;;;12.70;67.30;;;;;;4813719;29;20061;-77
2023/02/01 11:33:37;;;;;;;12.32;5.90;;;13.10;65.50;;;;;;4822400;29;20077;-76
2023/02/01 11:36:15;;;;;;;12.98;5.72;;;13.20;63.80;;;;;;4837757;29;20137;-74
2023/02/01 11:39:25;;;;;;;8.10;5.45;;;13.30;62.10;;;;;;4833485;29;20503;-75
2023/02/01 11:42:06;;;;;;;13.63;6.28;;;13.60;61.30;;;;;;4827462;29;20054;-76
2023/02/01 11:44:44;;;;;;;16.55;5.78;;;13.60;62.60;;;;;;4840345;29;20068;-74
2023/02/01 11:47:30;;;;;;;11.05;5.80;;;13.80;61.70;;;;;;4810856;29;20577;-76
2023/02/01 11:50:02;;;;;;;10.98;7.38;;;13.70;61.60;;;;;;4821461;29;20061;-76
2023/02/01 11:52:53;;;;;;;14.18;7.35;;;13.60;63.20;;;;;;4821105;29;20060;-76
2023/02/01 11:55:47;;;;;;;11.73;7.40;;;13.30;65.40;;;;;;4823328;29;20050;-77
2023/02/01 11:58:42;;;;;;;15.45;7.68;;;12.90;65.70;;;;;;4821055;29;20074;-76
2023/02/01 12:01:33;;;;;;;13.40;6.90;;;13.00;64.30;;;;;;4806312;29;20061;-76
2023/02/01 12:04:29;;;;;;;11.90;7.07;;;13.30;62.80;;;;;;4809781;29;20487;-75
2023/02/01 12:07:25;;;;;;;14.45;6.68;;;13.50;63.40;;;;;;4828997;29;20077;-75
2023/02/01 12:10:40;;;;;;;12.18;6.63;;;13.30;62.00;;;;;;4806581;29;20058;-75
2023/02/01 12:13:23;;;;;;;12.10;6.40;;;13.30;61.60;;;;;;4774317;29;20066;-76
2023/02/01 12:15:59;;;;;;;14.25;7.25;;;13.40;62.90;;;;;;4827211;29;20069;-76
2023/02/01 12:18:40;;;;;;;13.30;7.72;;;12.40;65.10;;;;;;4793700;29;20085;-76
2023/02/01 12:21:44;;;;;;;14.13;7.03;;;11.70;67.60;;;;;;4816297;29;20047;-72
2023/02/01 12:24:42;;;;;;;9.60;6.63;;;11.70;67.70;;;;;;4824350;29;20050;-74
2023/02/01 12:27:43;;;;;;;10.82;6.90;;;11.90;67.10;;;;;;4832520;29;20043;-77
2023/02/01 12:30:35;;;;;;;12.57;6.63;;;12.50;66.30;;;;;;4818708;29;20098;-74
2023/02/01 12:33:50;;;;;;;10.43;6.40;;;12.80;64.40;;;;;;4828089;29;20388;-77
2023/02/01 12:36:57;;;;;;;13.45;6.63;;;13.00;64.70;;;;;;4808232;29;20054;-73
2023/02/01 12:40:07;;;;;;;10.32;6.35;;;13.00;64.40;;;;;;4804283;29;20054;-74
2023/02/01 12:42:48;;;;;;;8.32;5.40;;;13.80;62.80;;;;;;4805767;29;20426;-76
2023/02/01 12:45:39;;;;;;;9.60;5.78;;;14.00;62.00;;;;;;4817613;24;20152;-75
2023/02/01 12:48:25;;;;;;;8.50;5.47;;;14.20;61.40;;;;;;4841117;29;20092;-74
2023/02/01 12:51:26;;;;;;;9.15;5.30;;;14.10;60.40;;;;;;4839032;29;20447;-74
2023/02/01 12:54:23;;;;;;;10.02;5.30;;;14.40;59.50;;;;;;4839292;29;20049;-76
2023/02/01 12:57:05;;;;;;;9.18;4.85;;;14.90;59.60;;;;;;4858370;29;20042;-80
2023/02/01 13:00:21;;;;;;;8.45;5.00;;;15.50;57.60;;;;;;4833564;29;20145;-75
2023/02/01 13:02:58;;;;;;;12.35;4.93;;;15.50;56.90;;;;;;4858449;29;20053;-79
2023/02/01 13:05:58;;;;;;;7.63;4.85;;;15.20;55.70;;;;;;4831508;29;20152;-78
2023/02/01 13:08:58;;;;;;;10.38;5.03;;;15.30;54.60;;;;;;4848774;29;20517;-78
2023/02/01 13:11:38;;;;;;;10.70;6.53;;;18.10;51.30;;;;;;4844234;29;20054;-76
2023/02/01 13:14:32;;;;;;;8.18;5.10;;;21.60;45.90;;;;;;4832949;29;20422;-75
2023/02/01 13:17:18;;;;;;;8.75;4.32;;;23.40;42.30;;;;;;4845540;29;20046;-79
2023/02/01 13:19:57;;;;;;;7.32;3.55;;;23.50;40.90;;;;;;4831549;29;20058;-79
2023/02/01 13:22:41;;;;;;;6.85;3.58;;;23.10;39.90;;;;;;4848218;29;20055;-77
2023/02/01 13:25:16;;;;;;;7.38;3.65;;;22.80;40.00;;;;;;4848450;29;20136;-78
2023/02/01 13:27:44;;;;;;;6.28;3.53;;;23.80;38.00;;;;;;4826814;29;20452;-78
2023/02/01 13:30:42;;;;;;;7.13;3.95;;;24.30;37.50;;;;;;4843800;29;20062;-79
2023/02/01 13:33:31;;;;;;;10.50;4.20;;;24.20;38.10;;;;;;4839275;29;20068;-79
2023/02/01 13:36:38;;;;;;;6.80;3.85;;;25.30;37.50;;;;;;4841529;29;20056;-76
2023/02/01 13:39:45;;;;;;;8.85;4.13;;;23.40;38.60;;;;;;4825759;29;20050;-72
2023/02/01 13:42:20;;;;;;;9.30;4.55;;;23.20;39.00;;;;;;4839864;29;20065;-75
2023/02/01 13:44:57;;;;;;;8.00;4.15;;;22.30;39.40;;;;;;4845551;29;20050;-74
2023/02/01 13:47:31;;;;;;;7.55;3.90;;;22.60;38.60;;;;;;4829053;29;20220;-73
2023/02/01 13:50:11;;;;;;;9.02;5.50;;;22.90;38.20;;;;;;4842455;29;20454;-73
2023/02/01 13:52:43;;;;;;;8.50;4.85;;;23.30;38.70;;;;;;4861568;29;20383;-75
2023/02/01 13:55:19;;;;;;;8.32;3.95;;;24.20;37.90;;;;;;4830999;29;20064;-74
2023/02/01 13:57:59;;;;;;;7.10;3.78;;;24.00;37.70;;;;;;4862634;29;20050;-76
2023/02/01 14:00:50;;;;;;;7.60;4.13;;;24.10;37.30;;;;;;4831062;29;20553;-75
2023/02/01 14:03:21;;;;;;;6.75;3.40;;;24.60;39.20;;;;;;4837243;29;20057;-76
2023/02/01 14:05:52;;;;;;;7.20;3.40;;;24.40;37.70;;;;;;4844470;29;20368;-74
2023/02/01 14:08:39;;;;;;;8.27;3.97;;;24.40;38.30;;;;;;4846073;29;20084;-72